Incline Creek, Nevada Weather observations

Data are for observation ending at time listed.
 Day   Time    Ave.   Ave.  Ave.  Vector   Max.   Stn.    Total    Solar   Ave.   Snow 
  of    of     Air    Rel.  Wind   Wind    Wind   Baro.  Precip.   Rad.    Soil   Depth
Year   Day     Temp.  Hum.  Speed  Dir.    Gust   Pres.                    Temp.       
2014   (PST)    F      %     mph   deg.    mph     mb.     in.     W/m2     F      in. 
---------------------------------------------------------------------------------------  
 262   14:10   68.1    32    4.7   339     15.3   999.0    0.00     571    999.0    0.0
 262   14:20   68.8    31    3.8   359     12.2   999.0    0.00     632    999.0    0.0
 262   14:30   68.5    31    5.4    73     15.0   999.0    0.00     562    999.0    0.0
 262   14:40   68.4    31    3.5   355     10.3   999.0    0.00     354    999.0    0.0
 262   14:50   68.4    31    3.4    12     10.1   999.0    0.00     326    999.0    0.0
 262   15:00   68.7    31    2.7    58      9.2   999.0    0.00     412    999.0    0.0
 262   15:10   69.8    29    3.8    37     11.3   999.0    0.00     523    999.0    0.0
 262   15:20   69.5    29    3.2   316     11.8   999.0    0.00     202    999.0    0.0
 262   15:30   69.0    28    3.5   327     12.1   999.0    0.00     410    999.0   83.9
 262   15:40   67.9    30    5.5   346     13.5   999.0    0.00     192    999.0    0.0
 262   15:50   68.4    29    3.6   307     11.1   999.0    0.00     350    999.0    0.0
 262   16:00   68.3    29    4.6   302      9.8   999.0    0.00     322    999.0    0.0
 262   16:10   68.1    29    4.5   296     14.0   999.0    0.00     124    999.0    0.0
 262   16:20   67.5    30    2.5   265     15.7   999.0    0.00      32    999.0    0.0
 262   16:30   67.4    29    3.3   315      9.5   999.0    0.00      29    999.0    0.0
 262   16:40   67.2    30    1.5   334      6.1   999.0    0.00      27    999.0    0.0
 262   16:50   67.0    29    2.4   241      9.5   999.0    0.00      24    999.0    0.0
 262   17:00   66.5    29    1.9   299      4.6   999.0    0.00      22    999.0    0.0
 262   17:10   66.1    29    2.7   316      9.6   999.0    0.00      19    999.0    0.0
 262   17:20   66.3    29    3.0   354     12.9   999.0    0.00      17    999.0    0.0
 262   17:30   65.6    30    2.2   335      5.2   999.0    0.00      13    999.0    0.0
 262   17:40   64.5    31    1.7   335      5.4   999.0    0.00       8    999.0    0.0
 262   17:50   63.6    32    1.5     5      4.1   999.0    0.00       4    999.0    0.0
 262   18:00   63.0    33    1.6   358      4.5   999.0    0.00       1    999.0    0.0
 262   18:10   63.1    32    2.1     2      6.8   999.0    0.00       0    999.0    0.0
 262   18:20   63.5    31    1.9   333      5.5   999.0    0.00       0    999.0    0.0
 262   18:30   63.7    31    2.2   331      4.3   999.0    0.00       0    999.0    0.0
 262   18:40   63.2    32    1.9   357      4.7   999.0    0.00       0    999.0    0.0
 262   18:50   61.8    34    2.1     3      4.6   999.0    0.00       0    999.0    0.0
 262   19:00   62.9    32    2.5   316      7.7   999.0    0.00       0    999.0    0.0
 262   19:10   62.6    32    1.4    27      4.3   999.0    0.00       0    999.0    0.0
 262   19:20   62.6    32    2.1   334      5.8   999.0    0.00       0    999.0   83.9
 262   19:30   64.3    30    3.0   338      8.8   999.0    0.00       0    999.0    0.0
 262   19:40   63.4    32    2.0   355      4.3   999.0    0.00       0    999.0    0.0
 262   19:50   61.1    35    2.2    15      4.1   999.0    0.00       0    999.0    0.0
 262   20:00   59.3    38    2.6    11      6.0   999.0    0.00       0    999.0    0.0
 262   20:10   59.7    38    2.1    11      6.2   999.0    0.00       0    999.0   83.9
 262   20:20   59.5    38    1.7    17      6.0   999.0    0.00       0    999.0   83.9
 262   20:30   60.8    36    1.4   355      3.7   999.0    0.00       0    999.0   83.9
 262   20:40   60.4    38    1.0   340      3.3   999.0    0.00       0    999.0   83.9
 262   20:50   59.6    39    0.9   351      3.3   999.0    0.00       0    999.0   83.9
 262   21:00   59.1    40    1.0    14      3.2   999.0    0.00       0    999.0   83.9
 262   21:10   59.2    40    1.6    38      4.3   999.0    0.00       0    999.0    0.0
 262   21:20   59.9    39    0.9     2      3.3   999.0    0.00       0    999.0    0.0
 262   21:30   59.9    39    1.7    30      3.9   999.0    0.00       0    999.0    0.0
 262   21:40   60.3    38    0.7    27      3.4   999.0    0.00       0    999.0    0.0
 262   21:50   60.2    38    1.4     0      4.5   999.0    0.00       0    999.0   83.9
 262   22:00   62.1    35    2.7    15      9.1   999.0    0.00       0    999.0    0.0
 262   22:10   63.5    33    3.6    18      9.0   999.0    0.00       0    999.0    0.0
 262   22:20   64.2    32    2.9   360     11.6   999.0    0.00       0    999.0    0.0
 262   22:30   64.1    32    2.7   356      8.1   999.0    0.00       0    999.0    0.0
 262   22:40   63.8    32    2.0     6      5.1   999.0    0.00       0    999.0    0.0
 262   22:50   63.9    32    2.3    44      9.5   999.0    0.00       0    999.0    0.0
 262   23:00   64.0    32    2.9    23      8.5   999.0    0.00       0    999.0    0.0
 262   23:10   63.6    32    2.8     6      9.7   999.0    0.00       0    999.0   83.9
 262   23:20   64.0    32    2.3    22      9.1   999.0    0.00       0    999.0    0.0
 262   23:30   64.1    32    2.1     7      6.1   999.0    0.00       0    999.0    0.0
 262   23:40   63.8    32    2.4    37      7.9   999.0    0.00       0    999.0    0.0
 262   23:50   63.9    32    2.8    31      8.5   999.0    0.00       0    999.0    0.0
 263    0:00   63.9    32    2.0   353      6.0   999.0    0.00       0    999.0   83.9
 263    0:10   63.6    32    2.7    18     12.8   999.0    0.00       0    999.0    0.0
 263    0:20   63.4    32    1.6   306      5.9   999.0    0.00       0    999.0   83.9
 263    0:30   63.2    33    2.0   353      7.1   999.0    0.00       0    999.0    0.0
 263    0:40   62.4    34    1.4    82      5.5   999.0    0.00       0    999.0    0.0
 263    0:50   62.3    34    2.1   116      7.3   999.0    0.00       0    999.0   83.9
 263    1:00   62.2    34    2.1     5      6.2   999.0    0.00       0    999.0    0.0
 263    1:10   61.6    35    1.6    28      5.1   999.0    0.00       0    999.0    0.0
 263    1:20   59.8    38    1.1   311      3.5   999.0    0.00       0    999.0   83.9
 263    1:30   58.0    41    1.3   333      2.5   999.0    0.00       0    999.0    0.0
 263    1:40   57.1    43    1.3   338      4.5   999.0    0.00       0    999.0    0.0
 263    1:50   57.3    42    2.3    13      4.6   999.0    0.00       0    999.0    0.0
 263    2:00   57.1    42    2.3     8      3.5   999.0    0.00       0    999.0    0.0
 263    2:10   57.4    42    2.1     2      4.6   999.0    0.00       0    999.0    0.0
 263    2:20   57.4    42    2.2   348      4.1   999.0    0.00       0    999.0    0.0
 263    2:30   56.9    43    2.0    14      3.8   999.0    0.00       0    999.0    0.0
 263    2:40   57.0    42    1.9   354      3.9   999.0    0.00       0    999.0    0.0
 263    2:50   57.4    42    2.1   333      3.6   999.0    0.00       0    999.0    0.0
 263    3:00   57.3    41    1.6   349      2.8   999.0    0.00       0    999.0    0.0
 263    3:10   56.6    43    2.0   357      3.4   999.0    0.00       0    999.0    0.0
 263    3:20   56.1    44    2.1    10      4.4   999.0    0.00       0    999.0    0.0
 263    3:30   56.9    42    2.6     1      5.0   999.0    0.00       0    999.0    0.0
 263    3:40   56.7    43    2.5     2      5.7   999.0    0.00       0    999.0    0.0
 263    3:50   56.4    43    2.5    12      5.0   999.0    0.00       0    999.0    0.0
 263    4:00   56.3    43    2.6     8      5.3   999.0    0.00       0    999.0   83.9
 263    4:10   57.4    41    3.5    11      8.8   999.0    0.00       0    999.0    0.0
 263    4:20   58.6    39    2.7     8      4.8   999.0    0.00       0    999.0   83.9
 263    4:30   59.0    38    2.6    11      7.5   999.0    0.00       0    999.0    0.0
 263    4:40   59.6    37    3.2     9      7.3   999.0    0.00       0    999.0    0.0
 263    4:50   59.9    36    3.4    18      9.6   999.0    0.00       0    999.0    0.0
 263    5:00   59.3    37    2.6   355      5.5   999.0    0.00       0    999.0   83.9
 263    5:10   59.8    36    3.1    18     10.7   999.0    0.00       0    999.0    0.0
 263    5:20   59.7    36    2.7    20     10.5   999.0    0.00       0    999.0   83.9
 263    5:30   60.0    36    3.1    15      7.7   999.0    0.00       1    999.0    0.0
 263    5:40   60.2    35    3.3    25      8.9   999.0    0.00       4    999.0    0.0
 263    5:50   60.7    35    3.4    54      9.2   999.0    0.00      10    999.0   83.9
 263    6:00   60.9    34    3.4    29      8.0   999.0    0.00      18    999.0    0.0
 263    6:10   61.2    34    4.9    13     11.3   999.0    0.00      28    999.0    0.0
 263    6:20   61.6    34    4.7    13     12.1   999.0    0.00      33    999.0    0.0
 263    6:30   61.8    33    5.4     6     13.2   999.0    0.00      39    999.0    0.0
 263    6:40   61.7    34    3.4    10      9.0   999.0    0.00      49    999.0    0.0
 263    6:50   61.7    34    4.0    42     10.3   999.0    0.00      61    999.0    0.0
 263    7:00   62.2    33    4.5   360     10.1   999.0    0.00     204    999.0    0.0
 263    7:10   63.1    32    3.3     8     10.9   999.0    0.00     245    999.0    0.0
 263    7:20   63.1    32    3.4     9     10.2   999.0    0.00     220    999.0    0.0
 263    7:30   63.4    32    3.7    11      9.9   999.0    0.00     272    999.0    0.0
 263    7:40   63.7    32    4.2    13     14.3   999.0    0.00     325    999.0    0.0
 263    7:50   63.8    32    5.2    16     12.4   999.0    0.00     400    999.0   83.9
 263    8:00   64.1    32    3.4    14     15.2   999.0    0.00     374    999.0   83.9
 263    8:10   64.4    32    4.1    14      9.6   999.0    0.00     442    999.0   83.9
 263    8:20   64.5    32    4.3    25     11.7   999.0    0.00     524    999.0    0.0
 263    8:30   65.5    31    3.9    11     12.7   999.0    0.00     551    999.0    0.0
 263    8:40   66.4    30    4.1    19     11.4   999.0    0.00     568    999.0   83.9
 263    8:50   66.7    30    3.2    62     12.0   999.0    0.00     589    999.0   83.9
 263    9:00   66.8    29    3.3   129     11.5   999.0    0.00     611    999.0    0.0
 263    9:10   66.6    29    4.2   168      7.2   999.0    0.00     616    999.0    0.0
 263    9:20   67.5    29    2.7   239      6.0   999.0    0.00     627    999.0    0.0
 263    9:30   68.1    28    2.3   139      5.0   999.0    0.00     572    999.0   83.9
 263    9:40   68.9    26    2.6   128      7.0   999.0    0.00     689    999.0    0.0
 263    9:50   68.8    27    4.2   175     14.2   999.0    0.00     738    999.0    0.0
 263   10:00   68.4    27    3.2     1      8.7   999.0    0.00     727    999.0    0.0
 263   10:10   68.4    28    5.6   337     13.9   999.0    0.00     748    999.0    0.0
 263   10:20   68.3    28    4.1     4     12.5   999.0    0.00     724    999.0    0.0
 263   10:30   69.2    27    3.7     1      8.4   999.0    0.00     782    999.0    0.0
 263   10:40   68.7    27    5.0   167     14.6   999.0    0.00     610    999.0    0.0
 263   10:50   68.5    28    3.8    58     13.9   999.0    0.00     641    999.0    0.0
 263   11:00   69.8    27    4.9   166     11.8   999.0    0.00     866    999.0    0.0
 263   11:10   70.1    26    4.7    41     12.2   999.0    0.00     840    999.0   83.9
 263   11:20   70.4    26    3.6    34      7.6   999.0    0.00     768    999.0   83.9
 263   11:30   71.4    25    3.3    14      8.5   999.0    0.00     801    999.0    0.0
 263   11:40   72.1    24    4.3    16     11.9   999.0    0.00     770    999.0   83.9
 263   11:50   71.9    25    3.2   300     11.1   999.0    0.00     784    999.0    0.0
 263   12:00   71.8    24    4.2    86     11.3   999.0    0.00     721    999.0   83.9
 263   12:10   71.4    24    5.4     3     18.2   999.0    0.00     706    999.0    0.0
 263   12:20   71.4    24    2.5   299      6.6   999.0    0.00     636    999.0    0.0
 263   12:30   72.1    24    3.2    74      6.8   999.0    0.00     651    999.0    0.0
 263   12:40   71.5    24    3.6    20     11.8   999.0    0.00     537    999.0    0.0
 263   12:50   71.3    24    5.5   151     13.2   999.0    0.00     623    999.0    0.0
 263   13:00   71.6    24    5.3   172     13.5   999.0    0.00     595    999.0    0.0
 263   13:10   72.6    24    4.8   342     12.4   999.0    0.00     741    999.0    0.0
 263   13:20   71.6    24    5.6    59     13.2   999.0    0.00     640    999.0    0.0
 263   13:30   70.9    24    4.3    58     16.4   999.0    0.00     364    999.0    0.0
 263   13:40   71.9    24    4.0   324     10.7   999.0    0.00     688    999.0    0.0
 263   13:50   72.6    23    3.5    37      8.9   999.0    0.00     492    999.0    0.0
 263   14:00   72.3    23    3.7    43     10.5   999.0    0.00     560    999.0    0.0

Return to Incline Creek graphs page.


Western Regional Climate Center,wrcc@dri.edu